Time;durP1;ratioP1;P1;durP2;ratioP2;P2;SDS_P1;SDS_P2;PMS_P1;PMS_P2;Temp;Humidity;BMP_temperature;BMP_pressure;BME280_temperature;BME280_humidity;BME280_pressure;Samples;Min_cycle;Max_cycle;Signal;HPM_P1;HPM_P2
2022/04/29 00:01:41;;;;;;;9.27;5.87;;;;;;;4.69;51.14;102142.33;1578198;90;21742;-77
2022/04/29 00:04:07;;;;;;;9.73;6.47;;;;;;;4.62;51.09;102148.97;1577808;90;20941;-76
2022/04/29 00:06:33;;;;;;;7.72;5.85;;;;;;;4.56;51.21;102151.33;1577841;90;21111;-76
2022/04/29 00:09:02;;;;;;;10.20;5.37;;;;;;;4.53;51.37;102151.64;1577340;90;21100;-77
2022/04/29 00:11:28;;;;;;;10.63;5.45;;;;;;;4.50;51.36;102152.41;1578078;90;21109;-77
2022/04/29 00:13:54;;;;;;;8.73;6.00;;;;;;;4.46;51.36;102148.41;1578096;90;21005;-77
2022/04/29 00:16:21;;;;;;;9.03;6.00;;;;;;;4.41;51.49;102149.53;1577683;90;20945;-76
2022/04/29 00:18:47;;;;;;;8.10;5.37;;;;;;;4.37;51.53;102147.69;1580086;90;20971;-76
2022/04/29 00:21:15;;;;;;;11.40;5.50;;;;;;;4.32;51.56;102151.38;1580026;90;20966;-76
2022/04/29 00:23:41;;;;;;;8.57;5.63;;;;;;;4.25;51.65;102149.42;1580149;90;20914;-76
2022/04/29 00:26:07;;;;;;;7.53;5.60;;;;;;;4.22;51.71;102146.76;1591517;90;20971;-77
2022/04/29 00:28:33;;;;;;;9.93;4.92;;;;;;;4.19;51.77;102145.37;1588662;90;21081;-76
2022/04/29 00:30:59;;;;;;;8.98;5.45;;;;;;;4.15;51.77;102143.97;1587966;90;20952;-76
2022/04/29 00:33:27;;;;;;;7.70;4.97;;;;;;;4.10;51.85;102150.20;1571388;91;22024;-77
2022/04/29 00:35:53;;;;;;;11.18;5.67;;;;;;;4.04;51.85;102153.83;1581677;90;21454;-77
2022/04/29 00:38:19;;;;;;;7.57;5.93;;;;;;;3.99;51.92;102151.52;1582119;90;20917;-76
2022/04/29 00:40:49;;;;;;;9.85;6.05;;;;;;;3.96;52.00;102152.69;1571129;91;20937;-76
2022/04/29 00:43:15;;;;;;;8.70;5.22;;;;;;;3.93;52.03;102150.02;1570465;91;21001;-76
2022/04/29 00:45:41;;;;;;;8.53;5.22;;;;;;;3.88;52.06;102146.02;1583430;90;20946;-77
2022/04/29 00:48:08;;;;;;;8.50;5.33;;;;;;;3.85;52.08;102151.02;1591873;89;21331;-77
2022/04/29 00:50:35;;;;;;;9.20;5.00;;;;;;;3.81;52.14;102143.17;1595144;89;21347;-77
2022/04/29 00:53:03;;;;;;;8.80;4.60;;;;;;;3.77;52.15;102147.72;1595194;88;21427;-76
2022/04/29 00:55:31;;;;;;;8.70;5.53;;;;;;;3.73;52.26;102142.03;1579105;90;21028;-77
2022/04/29 00:58:11;;;;;;;6.83;4.72;;;;;;;3.68;52.25;102140.58;1579504;89;21466;-77
2022/04/29 01:00:38;;;;;;;7.25;4.75;;;;;;;3.62;52.31;102141.26;1551149;91;21470;-77
2022/04/29 01:03:12;;;;;;;6.12;4.33;;;;;;;3.56;52.39;102138.47;1595484;89;21089;-77
2022/04/29 01:05:40;;;;;;;11.75;4.90;;;;;;;3.51;52.42;102142.95;1594604;89;21419;-77
2022/04/29 01:08:08;;;;;;;9.85;4.53;;;;;;;3.43;52.43;102143.95;1595859;89;21150;-77
2022/04/29 01:10:34;;;;;;;6.87;5.15;;;;;;;3.39;52.51;102137.38;1595392;88;21105;-77
2022/04/29 01:13:03;;;;;;;7.15;5.65;;;;;;;3.36;52.64;102140.69;1595719;88;21098;-77
2022/04/29 01:15:37;;;;;;;5.12;4.55;;;;;;;3.35;52.67;102145.34;1595230;88;21097;-77
2022/04/29 01:18:08;;;;;;;5.35;4.47;;;;;;;3.29;52.69;102141.27;1595198;89;21013;-77
2022/04/29 01:20:35;;;;;;;9.48;5.62;;;;;;;3.27;52.78;102136.51;1593545;89;21101;-77
2022/04/29 01:23:09;;;;;;;9.45;5.47;;;;;;;3.23;52.81;102133.37;1595614;88;22250;-77
2022/04/29 01:25:36;;;;;;;7.67;6.10;;;;;;;3.16;52.92;102134.81;1595343;89;21077;-77
2022/04/29 01:28:03;;;;;;;8.08;5.30;;;;;;;3.15;53.08;102137.31;1595063;89;21118;-76
2022/04/29 01:30:29;;;;;;;;;;;;;;;3.13;53.03;102133.42;1570889;89;21153;-77
2022/04/29 01:32:57;;;;;;;5.80;4.72;;;;;;;3.08;53.60;102128.57;1595303;89;20728;-77
2022/04/29 01:35:23;;;;;;;7.80;5.85;;;;;;;3.03;53.13;102123.69;1595012;89;21093;-76
2022/04/29 01:37:50;;;;;;;7.58;5.28;;;;;;;2.97;53.17;102126.88;1595297;89;21093;-77
2022/04/29 01:40:16;;;;;;;9.25;5.65;;;;;;;2.95;53.24;102123.80;1569861;89;21565;-77
2022/04/29 01:42:43;;;;;;;9.65;5.58;;;;;;;2.93;53.31;102125.41;1596891;89;20918;-76
2022/04/29 01:45:10;;;;;;;8.30;5.45;;;;;;;2.91;53.34;102121.93;1597356;89;20934;-76
2022/04/29 01:47:37;;;;;;;8.20;5.17;;;;;;;2.87;53.36;102127.33;1594694;89;21445;-76
2022/04/29 01:50:04;;;;;;;12.53;5.40;;;;;;;2.82;53.38;102123.72;1597518;89;20942;-76
2022/04/29 01:52:30;;;;;;;7.58;6.50;;;;;;;2.78;53.47;102118.42;1571062;91;21058;-76
2022/04/29 01:54:56;;;;;;;8.18;5.75;;;;;;;2.71;53.56;102119.86;1587644;88;21343;-76
2022/04/29 01:57:22;;;;;;;8.83;6.07;;;;;;;2.68;53.78;102112.48;1581923;90;20948;-76
2022/04/29 01:59:48;;;;;;;8.60;5.97;;;;;;;2.69;53.67;102106.56;1581518;89;20940;-76
2022/04/29 02:02:16;;;;;;;8.50;5.75;;;;;;;2.68;53.79;102111.20;1570927;91;20986;-76
2022/04/29 02:04:42;;;;;;;10.05;6.30;;;;;;;2.68;53.84;102115.03;1571013;91;21437;-76
2022/04/29 02:07:09;;;;;;;10.72;5.92;;;;;;;2.69;54.03;102109.98;1597286;89;20981;-76
2022/04/29 02:09:35;;;;;;;7.92;5.95;;;;;;;2.71;53.88;102108.77;1597196;89;20970;-76
2022/04/29 02:12:06;;;;;;;9.35;6.40;;;;;;;2.68;53.88;102112.07;1597112;89;20974;-77
2022/04/29 02:14:36;;;;;;;7.80;6.08;;;;;;;2.65;53.93;102114.09;1597402;89;20965;-76
2022/04/29 02:17:04;;;;;;;10.95;6.20;;;;;;;2.60;53.92;102116.03;1597706;88;20974;-76
2022/04/29 02:19:31;;;;;;;8.45;5.95;;;;;;;2.52;53.88;102111.89;1597480;89;21447;-76
2022/04/29 02:21:57;;;;;;;7.92;6.33;;;;;;;2.43;53.93;102119.17;1597068;88;20942;-76
2022/04/29 02:24:23;;;;;;;;;;;;;;;2.35;54.06;102117.11;1599799;89;20941;-76
2022/04/29 02:26:55;;;;;;;7.95;6.50;;;;;;;2.33;54.88;102119.59;1597332;89;20114;-76
2022/04/29 02:29:22;;;;;;;13.83;6.90;;;;;;;2.32;54.35;102117.85;1601272;89;21323;-77
2022/04/29 02:31:49;;;;;;;9.90;6.10;;;;;;;2.30;54.33;102119.47;1604701;89;22284;-76
2022/04/29 02:34:15;;;;;;;10.70;6.85;;;;;;;2.26;54.27;102124.85;1604824;89;21180;-77
2022/04/29 02:36:41;;;;;;;9.58;6.42;;;;;;;2.21;54.26;102121.64;1604552;89;21087;-76
2022/04/29 02:39:08;;;;;;;9.95;6.53;;;;;;;2.18;54.37;102120.23;1605051;89;21150;-77
2022/04/29 02:41:35;;;;;;;9.50;6.67;;;;;;;2.16;54.48;102118.89;1604596;89;21081;-76
2022/04/29 02:44:01;;;;;;;11.30;6.20;;;;;;;2.13;54.42;102120.44;1603222;89;21024;-76
2022/04/29 02:46:27;;;;;;;15.78;9.80;;;;;;;2.04;54.38;102119.67;1604914;87;20965;-76
2022/04/29 02:48:53;;;;;;;13.25;9.18;;;;;;;1.99;54.41;102121.16;1604704;88;21120;-76
2022/04/29 02:51:22;;;;;;;27.58;13.15;;;;;;;1.96;54.52;102115.52;1604277;88;21122;-76
2022/04/29 02:53:48;;;;;;;18.67;10.47;;;;;;;1.95;54.67;102109.95;1604264;89;20945;-76
2022/04/29 02:56:14;;;;;;;16.77;9.13;;;;;;;1.94;54.70;102112.44;1603726;89;21022;-76
2022/04/29 02:58:43;;;;;;;16.35;9.75;;;;;;;1.92;54.75;102107.67;1603680;87;21136;-76
2022/04/29 03:01:09;;;;;;;13.60;9.30;;;;;;;1.87;54.69;102105.33;1605479;88;20937;-76
2022/04/29 03:03:35;;;;;;;14.60;9.48;;;;;;;1.84;54.68;102107.34;1605082;89;21096;-77
2022/04/29 03:06:02;;;;;;;18.98;12.25;;;;;;;1.82;54.80;102102.58;1604488;89;21008;-77
2022/04/29 03:08:28;;;;;;;16.50;11.30;;;;;;;1.81;54.83;102106.33;1604720;89;21076;-77
2022/04/29 03:10:55;;;;;;;14.28;8.43;;;;;;;1.77;54.76;102112.11;1604771;89;21076;-77
2022/04/29 03:13:26;;;;;;;7.90;6.25;;;;;;;1.73;54.81;102108.95;1604368;88;21092;-77
2022/04/29 03:15:52;;;;;;;9.83;6.75;;;;;;;1.69;54.90;102106.67;1599823;87;21631;-77
2022/04/29 03:18:18;;;;;;;8.93;6.43;;;;;;;1.67;54.91;102109.55;1605273;88;20878;-76
2022/04/29 03:20:47;;;;;;;11.43;6.47;;;;;;;1.64;55.02;102107.73;1604533;88;21029;-76
2022/04/29 03:23:13;;;;;;;9.55;6.92;;;;;;;1.61;55.04;102105.45;1605120;89;21072;-77
2022/04/29 03:25:42;;;;;;;9.33;7.33;;;;;;;1.58;55.15;102108.74;1581365;89;21097;-76
2022/04/29 03:28:09;;;;;;;13.90;6.60;;;;;;;1.59;55.19;102105.79;1604448;89;21060;-77
2022/04/29 03:30:36;;;;;;;13.98;8.58;;;;;;;1.58;55.39;102107.47;1595011;89;21049;-76
2022/04/29 03:33:05;;;;;;;12.53;7.53;;;;;;;1.60;55.38;102107.13;1596404;89;21045;-76
2022/04/29 03:35:41;;;;;;;12.98;7.70;;;;;;;1.57;55.52;102107.40;1595609;89;21120;-77
2022/04/29 03:38:09;;;;;;;14.30;8.13;;;;;;;1.55;55.46;102112.46;1597204;89;20942;-77
2022/04/29 03:40:35;;;;;;;16.30;8.65;;;;;;;1.56;55.47;102110.35;1576790;89;21053;-77
2022/04/29 03:43:02;;;;;;;24.72;10.53;;;;;;;1.55;55.53;102109.91;1595435;89;20942;-77
2022/04/29 03:45:28;;;;;;;18.82;9.48;;;;;;;1.55;55.59;102105.22;1597366;88;20942;-76
2022/04/29 03:47:55;;;;;;;25.27;11.70;;;;;;;1.58;55.74;102104.05;1597313;89;21391;-76
2022/04/29 03:50:25;;;;;;;21.85;10.98;;;;;;;1.61;55.74;102113.11;1597467;88;20895;-76
2022/04/29 03:52:57;;;;;;;20.68;10.60;;;;;;;1.62;55.65;102110.63;1575212;89;20986;-76
2022/04/29 03:55:27;;;;;;;14.25;8.83;;;;;;;1.63;55.65;102112.77;1597006;89;20938;-77
2022/04/29 03:57:54;;;;;;;14.65;8.93;;;;;;;1.63;55.78;102113.64;1597224;89;21018;-76
2022/04/29 04:00:23;;;;;;;18.98;8.90;;;;;;;1.68;55.80;102113.84;1597760;89;20967;-75
2022/04/29 04:02:49;;;;;;;22.85;8.98;;;;;;;1.72;55.79;102113.17;1596597;88;21366;-76
2022/04/29 04:05:17;;;;;;;19.85;8.88;;;;;;;1.77;55.95;102121.03;1571710;89;20975;-76
2022/04/29 04:07:45;;;;;;;21.10;9.18;;;;;;;1.84;56.02;102119.22;1596873;88;20950;-76
2022/04/29 04:10:13;;;;;;;16.20;8.90;;;;;;;1.95;56.12;102126.53;1596101;88;21466;-76
2022/04/29 04:12:51;;;;;;;15.15;9.70;;;;;;;2.10;56.23;102119.03;1597112;89;20926;-75
2022/04/29 04:15:20;;;;;;;14.60;9.18;;;;;;;2.32;56.37;102124.23;1571585;88;21080;-75
2022/04/29 04:17:46;;;;;;;21.60;10.40;;;;;;;2.51;56.43;102127.14;1596611;89;21483;-76
2022/04/29 04:20:15;;;;;;;18.50;9.70;;;;;;;2.62;56.44;102128.02;1578845;89;21657;-76
2022/04/29 04:22:41;;;;;;;15.25;9.68;;;;;;;2.69;56.42;102129.14;1579391;89;21076;-76
2022/04/29 04:25:12;;;;;;;15.83;8.48;;;;;;;2.75;56.44;102131.06;1570748;89;21065;-76
2022/04/29 04:27:39;;;;;;;13.80;7.65;;;;;;;2.79;56.52;102129.11;1597161;88;20986;-75
2022/04/29 04:30:09;;;;;;;15.10;9.33;;;;;;;2.83;56.48;102131.84;1601888;89;21076;-76
2022/04/29 04:32:38;;;;;;;17.35;8.78;;;;;;;2.89;56.62;102132.09;1605276;88;21651;-75
2022/04/29 04:35:06;;;;;;;17.27;9.28;;;;;;;2.95;56.74;102138.72;1603434;87;21552;-75
2022/04/29 04:37:33;;;;;;;16.45;8.53;;;;;;;2.99;56.69;102141.86;1597117;88;21100;-75
2022/04/29 04:40:00;;;;;;;13.72;9.00;;;;;;;3.07;56.82;102144.72;1610627;87;22275;-75
2022/04/29 04:42:26;;;;;;;;;;;;;;;3.13;56.85;102141.49;1611177;87;21528;-76
2022/04/29 04:44:53;;;;;;;14.07;9.23;;;;;;;3.20;57.43;102147.31;1623249;87;20211;-76
2022/04/29 04:47:21;;;;;;;15.32;9.00;;;;;;;3.27;57.03;102150.16;1608123;87;21508;-75
2022/04/29 04:49:48;;;;;;;16.32;8.60;;;;;;;3.38;57.15;102150.98;1604986;89;21654;-75
2022/04/29 04:52:14;;;;;;;17.32;9.23;;;;;;;3.47;57.24;102150.05;1580146;90;21587;-75
2022/04/29 04:54:40;;;;;;;16.23;8.95;;;;;;;3.58;57.28;102150.04;1579796;89;21615;-75
2022/04/29 04:57:08;;;;;;;17.60;9.70;;;;;;;3.71;57.39;102151.33;1578260;89;21134;-77
2022/04/29 04:59:35;;;;;;;16.87;9.33;;;;;;;3.84;57.42;102156.95;1573277;89;21534;-76
2022/04/29 05:02:02;;;;;;;15.15;9.45;;;;;;;3.99;57.54;102155.35;1585775;88;21080;-76
2022/04/29 05:04:27;;;;;;;;;;;;;;;4.19;57.69;102152.18;1586739;88;21144;-77
2022/04/29 05:06:53;;;;;;;14.28;9.83;;;;;;;4.53;58.54;102152.52;1577740;90;20282;-76
2022/04/29 05:09:20;;;;;;;14.73;9.58;;;;;;;5.06;58.17;102149.50;1605257;89;21521;-76
2022/04/29 05:11:45;;;;;;;19.52;11.80;;;;;;;5.67;58.25;102146.17;1577572;90;21085;-77
2022/04/29 05:14:11;;;;;;;20.40;14.03;;;;;;;6.33;58.31;102147.53;1577564;90;21028;-77
2022/04/29 05:16:37;;;;;;;24.47;16.00;;;;;;;6.97;58.38;102146.52;1554978;89;21646;-77
2022/04/29 05:19:10;;;;;;;21.05;13.78;;;;;;;7.60;58.46;102154.77;1577309;90;21522;-77
2022/04/29 05:21:35;;;;;;;15.03;11.80;;;;;;;8.28;58.43;102153.93;1578137;90;20953;-77
2022/04/29 05:24:02;;;;;;;18.07;12.53;;;;;;;8.85;58.42;102154.44;1578061;90;21607;-77
2022/04/29 05:26:28;;;;;;;20.50;11.20;;;;;;;9.38;58.44;102156.05;1578163;90;21128;-77
2022/04/29 05:28:54;;;;;;;20.13;11.37;;;;;;;9.89;58.48;102159.27;1578133;90;21632;-77
2022/04/29 05:31:20;;;;;;;15.17;10.73;;;;;;;10.54;58.33;102154.34;1578439;90;21824;-78
2022/04/29 05:33:46;;;;;;;13.43;10.87;;;;;;;11.06;58.43;102154.29;1578322;90;21565;-77
2022/04/29 05:36:13;;;;;;;12.43;10.20;;;;;;;11.69;58.41;102153.31;1576013;90;21528;-77
2022/04/29 05:44:09;;;;;;;11.75;8.58;;;;;;;13.40;58.17;102148.64;1604111;88;21076;-77
2022/04/29 05:46:35;;;;;;;10.13;7.75;;;;;;;13.99;58.17;102151.84;1577938;90;21624;-77
2022/04/29 05:49:03;;;;;;;11.17;7.70;;;;;;;14.37;57.97;102152.44;1585496;88;20937;-77
2022/04/29 05:51:30;;;;;;;7.78;6.97;;;;;;;14.65;57.92;102153.09;1592814;89;21092;-76
2022/04/29 05:53:56;;;;;;;9.40;6.72;;;;;;;14.95;57.81;102153.70;1595557;89;21661;-77
2022/04/29 05:56:22;;;;;;;9.43;7.17;;;;;;;15.17;57.58;102160.41;1591521;88;21064;-78
2022/04/29 05:58:48;;;;;;;13.40;6.97;;;;;;;15.46;57.63;102159.66;1591308;88;21623;-77
2022/04/29 06:01:14;;;;;;;9.30;7.53;;;;;;;15.73;57.38;102166.28;1605983;87;21762;-77
2022/04/29 06:03:40;;;;;;;9.43;7.17;;;;;;;16.04;57.28;102159.36;1603593;89;21072;-77
2022/04/29 06:06:06;;;;;;;8.97;7.23;;;;;;;16.31;57.12;102164.60;1604903;87;21516;-78
2022/04/29 06:08:32;;;;;;;25.50;8.80;;;;;;;16.61;57.04;102164.58;1585500;89;20929;-78
2022/04/29 06:10:58;;;;;;;8.63;7.30;;;;;;;16.92;56.85;102159.26;1587546;88;20981;-78
2022/04/29 06:13:24;;;;;;;11.97;7.42;;;;;;;17.01;56.41;102163.45;1588962;88;21108;-78
2022/04/29 06:15:50;;;;;;;11.60;6.80;;;;;;;17.01;56.22;102166.08;1584141;89;20954;-77
2022/04/29 06:18:16;;;;;;;11.00;7.57;;;;;;;17.03;56.08;102158.63;1595700;89;21777;-76
2022/04/29 06:20:41;;;;;;;12.07;7.33;;;;;;;17.16;55.88;102156.17;1587965;89;27133;-78
2022/04/29 06:23:07;;;;;;;9.03;6.90;;;;;;;17.24;55.70;102154.72;1596804;88;21563;-78
2022/04/29 06:25:33;;;;;;;9.53;7.03;;;;;;;17.37;55.68;102149.67;1585175;88;21135;-77
2022/04/29 06:27:59;;;;;;;7.10;6.07;;;;;;;17.45;55.24;102150.38;1584779;89;20996;-77
2022/04/29 06:30:25;;;;;;;10.67;5.93;;;;;;;17.47;55.16;102151.66;1569230;90;21014;-77
2022/04/29 06:32:55;;;;;;;9.67;6.53;;;;;;;17.53;55.01;102153.70;1603779;88;21128;-78
2022/04/29 06:35:21;;;;;;;7.97;5.33;;;;;;;17.63;54.78;102150.91;1581979;89;20938;-78
2022/04/29 06:37:48;;;;;;;6.92;6.10;;;;;;;17.75;54.77;102159.36;1581126;89;21355;-78
2022/04/29 06:40:14;;;;;;;9.53;7.17;;;;;;;17.92;54.46;102158.14;1602513;88;20921;-78
2022/04/29 06:42:46;;;;;;;11.40;10.30;;;;;;;18.01;54.40;102157.94;1586116;89;21009;-78
2022/04/29 06:45:13;;;;;;;10.18;9.18;;;;;;;18.24;54.31;102155.64;1569006;90;21017;-77
2022/04/29 06:47:40;;;;;;;7.55;5.95;;;;;;;18.35;53.90;102154.08;1581658;89;20977;-78
2022/04/29 06:50:07;;;;;;;9.30;7.33;;;;;;;18.48;53.85;102159.44;1580646;89;20914;-78
2022/04/29 06:52:34;;;;;;;7.53;5.78;;;;;;;18.65;53.51;102157.75;1567797;91;21073;-79
2022/04/29 06:55:00;;;;;;;11.45;6.33;;;;;;;18.62;53.13;102160.45;1578613;89;21102;-79
2022/04/29 06:57:26;;;;;;;9.38;5.92;;;;;;;18.68;53.09;102165.54;1591964;88;21093;-78
2022/04/29 06:59:52;;;;;;;7.07;6.47;;;;;;;18.85;53.04;102164.19;1568439;89;21123;-78
2022/04/29 07:02:18;;;;;;;6.77;5.47;;;;;;;19.06;52.77;102162.77;1571378;89;21601;-78
2022/04/29 07:04:44;;;;;;;5.90;5.37;;;;;;;19.23;52.61;102157.07;1562887;89;21439;-78
2022/04/29 07:07:14;;;;;;;7.57;5.07;;;;;;;19.41;52.37;102163.55;1588991;88;20984;-78
2022/04/29 07:09:40;;;;;;;8.90;5.62;;;;;;;19.57;52.14;102165.31;1593902;88;21083;-78
2022/04/29 07:12:09;;;;;;;6.63;5.17;;;;;;;19.72;51.92;102170.98;1597156;88;21076;-78
2022/04/29 07:14:35;;;;;;;6.00;4.10;;;;;;;19.83;51.58;102166.70;1594258;88;21082;-79
2022/04/29 07:17:03;;;;;;;4.53;4.12;;;;;;;19.96;51.19;102161.94;1569014;88;21167;-78
2022/04/29 07:19:30;;;;;;;5.80;4.53;;;;;;;19.98;50.75;102166.70;1595108;88;21125;-78
2022/04/29 07:21:56;;;;;;;8.40;4.45;;;;;;;19.82;50.43;102159.28;1569544;89;21100;-79
2022/04/29 07:24:22;;;;;;;8.37;4.43;;;;;;;19.78;50.56;102152.40;1578511;89;21059;-78
2022/04/29 07:26:48;;;;;;;7.87;4.00;;;;;;;19.95;50.38;102158.91;1595852;88;21103;-78
2022/04/29 07:29:14;;;;;;;5.30;3.87;;;;;;;20.10;50.52;102155.36;1569927;89;21199;-79
2022/04/29 07:31:40;;;;;;;5.37;4.87;;;;;;;20.47;50.74;102156.83;1580770;89;21077;-78
2022/04/29 07:34:06;;;;;;;9.17;5.33;;;;;;;20.87;49.86;102155.02;1584488;90;21784;-78
2022/04/29 07:42:01;;;;;;;7.10;4.42;;;;;;;20.25;48.23;102154.03;1568483;90;21074;-78
2022/04/29 07:44:28;;;;;;;;;;;;;;;20.20;47.60;102159.02;1585834;90;21162;-78
2022/04/29 07:46:54;;;;;;;11.18;5.45;;;;;;;19.78;47.32;102155.02;1581571;88;20285;-78
2022/04/29 07:49:21;;;;;;;7.83;5.60;;;;;;;19.55;47.66;102160.11;1582413;88;21074;-78
2022/04/29 07:51:47;;;;;;;;;;;;;;;19.50;47.65;102155.41;1583153;88;20951;-78
2022/04/29 07:54:13;;;;;;;7.17;4.10;;;;;;;19.56;46.75;102146.53;1586484;89;20193;-78
2022/04/29 07:56:39;;;;;;;5.83;4.30;;;;;;;19.53;46.87;102147.48;1579203;88;20986;-78
2022/04/29 07:59:05;;;;;;;8.07;4.47;;;;;;;19.45;46.33;102144.19;1557374;90;20943;-78
2022/04/29 08:01:33;;;;;;;6.07;4.27;;;;;;;19.38;46.30;102148.75;1583841;88;20908;-78
2022/04/29 08:03:59;;;;;;;6.05;3.95;;;;;;;19.23;45.82;102149.66;1594369;88;20967;-78
2022/04/29 08:06:26;;;;;;;7.90;3.90;;;;;;;18.87;45.77;102145.80;1584719;88;22368;-78
2022/04/29 08:08:52;;;;;;;5.50;3.05;;;;;;;18.75;45.98;102144.34;1564957;90;21018;-78
2022/04/29 08:11:18;;;;;;;5.12;2.92;;;;;;;18.76;45.18;102151.31;1571703;90;20945;-78
2022/04/29 08:13:45;;;;;;;4.17;2.85;;;;;;;18.63;45.34;102139.90;1576734;90;20949;-77
2022/04/29 08:16:12;;;;;;;;;;;;;;;18.67;45.08;102144.16;1580166;90;20973;-79
2022/04/29 08:18:38;;;;;;;4.05;2.70;;;;;;;18.64;44.46;102145.09;1578299;90;20119;-78
2022/04/29 08:21:04;;;;;;;2.12;1.50;;;;;;;18.70;44.62;102140.16;1593763;88;20930;-78
2022/04/29 08:23:31;;;;;;;4.35;1.75;;;;;;;18.71;43.84;102145.81;1565476;91;20938;-78
2022/04/29 08:26:00;;;;;;;5.22;1.90;;;;;;;18.47;43.46;102135.00;1566465;90;20979;-78
2022/04/29 08:28:28;;;;;;;3.27;1.80;;;;;;;18.45;43.44;102139.86;1563599;90;25644;-78
2022/04/29 08:30:54;;;;;;;5.03;1.70;;;;;;;18.29;43.05;102135.44;1583511;88;20958;-78
2022/04/29 08:33:21;;;;;;;2.77;1.93;;;;;;;18.25;43.34;102132.48;1568649;90;20983;-78
2022/04/29 08:35:47;;;;;;;3.27;2.20;;;;;;;18.14;43.08;102132.77;1559103;91;20942;-79
2022/04/29 08:38:13;;;;;;;5.60;2.27;;;;;;;18.26;43.22;102131.59;1579137;89;21562;-78
2022/04/29 08:40:44;;;;;;;6.50;2.00;;;;;;;18.39;43.11;102134.77;1580194;89;21011;-79
2022/04/29 08:43:12;;;;;;;4.70;1.50;;;;;;;18.46;42.78;102129.35;1562474;91;20970;-79
2022/04/29 08:45:38;;;;;;;2.40;1.90;;;;;;;18.47;42.48;102137.63;1564277;89;21002;-78
2022/04/29 08:48:05;;;;;;;6.25;2.80;;;;;;;18.47;42.16;102129.77;1587370;88;20991;-79
2022/04/29 08:50:32;;;;;;;2.37;1.77;;;;;;;18.40;42.30;102121.64;1584177;89;20984;-79
2022/04/29 08:52:58;;;;;;;3.60;1.95;;;;;;;18.40;41.88;102128.64;1591479;88;20948;-79
2022/04/29 09:01:04;;;;;;;5.10;2.00;;;;;;;18.34;41.72;102122.23;1575173;89;20949;-79
2022/04/29 09:03:31;;;;;;;4.00;1.62;;;;;;;18.26;41.43;102119.80;1579790;89;20945;-79
2022/04/29 09:05:57;;;;;;;;;;;;;;;18.17;41.36;102111.75;1571581;89;20970;-79
2022/04/29 09:08:24;;;;;;;3.52;2.08;;;;;;;18.11;41.05;102113.65;1565651;90;20256;-79
2022/04/29 09:11:00;;;;;;;2.95;1.82;;;;;;;18.01;41.13;102110.83;1599606;88;20987;-79
2022/04/29 09:13:29;;;;;;;3.87;2.10;;;;;;;17.82;40.99;102118.23;1576099;89;20981;-79
2022/04/29 09:15:59;;;;;;;4.15;2.37;;;;;;;17.67;40.74;102108.98;1566538;90;20900;-79
2022/04/29 09:18:43;;;;;;;4.47;2.20;;;;;;;17.52;40.75;102111.89;1567610;90;20969;-79
2022/04/29 09:21:25;;;;;;;2.52;1.67;;;;;;;17.37;40.52;102119.60;1588432;89;21481;-79
2022/04/29 09:23:59;;;;;;;3.80;2.40;;;;;;;17.23;40.47;102120.77;1595375;88;20910;-79
2022/04/29 09:26:30;;;;;;;9.10;2.42;;;;;;;17.11;40.00;102124.50;1593337;88;20971;-79
2022/04/29 09:29:19;;;;;;;6.05;2.00;;;;;;;17.00;40.26;102116.86;1593161;88;20926;-78
2022/04/29 09:31:55;;;;;;;4.17;1.82;;;;;;;16.91;39.89;102118.34;1579018;89;21448;-80
2022/04/29 09:34:26;;;;;;;3.52;1.70;;;;;;;16.75;39.80;102123.42;1596450;88;20972;-78
2022/04/29 09:36:53;;;;;;;2.98;1.95;;;;;;;16.65;39.59;102124.46;1596789;88;20946;-78
2022/04/29 09:39:30;;;;;;;4.47;2.20;;;;;;;16.55;39.67;102128.97;1555215;89;23407;-78
2022/04/29 09:42:00;;;;;;;4.25;2.30;;;;;;;16.39;39.62;102117.91;1577896;89;20965;-78
2022/04/29 09:44:33;;;;;;;3.62;2.87;;;;;;;16.22;39.47;102117.31;1565687;90;21415;-78
2022/04/29 09:47:19;;;;;;;3.62;2.25;;;;;;;16.06;39.37;102117.16;1568427;91;20993;-78
2022/04/29 09:49:59;;;;;;;5.05;2.25;;;;;;;15.93;39.47;102110.38;1591647;88;21005;-78
2022/04/29 09:52:30;;;;;;;7.45;2.00;;;;;;;15.95;39.40;102109.48;1596055;88;20982;-78
2022/04/29 09:55:14;;;;;;;3.05;2.20;;;;;;;15.93;39.33;102112.55;1596648;88;20945;-78
2022/04/29 09:57:58;;;;;;;3.22;1.77;;;;;;;15.88;39.14;102110.45;1600793;88;21124;-79
2022/04/29 10:00:25;;;;;;;19.23;17.17;;;;;;;15.83;39.17;102098.77;1594477;88;20986;-79
2022/04/29 10:03:03;;;;;;;4.16;3.00;;;;;;;15.79;39.20;102098.84;1561089;88;10000785;-79
2022/04/29 10:05:26;;;;;;;2.85;1.37;;;;;;;15.87;38.66;102098.29;1574075;89;21028;-79
2022/04/29 10:07:55;;;;;;;4.45;1.40;;;;;;;15.89;38.95;102096.52;1591584;88;21009;-79
2022/04/29 10:10:24;;;;;;;3.17;1.40;;;;;;;15.94;38.89;102096.45;1592324;88;21077;-79
2022/04/29 10:12:51;;;;;;;2.40;1.32;;;;;;;15.92;38.80;102098.22;1599405;88;21070;-79
2022/04/29 10:15:20;;;;;;;2.52;1.10;;;;;;;15.86;38.71;102087.43;1557768;89;22247;-78
2022/04/29 10:23:25;;;;;;;1.70;0.88;;;;;;;15.92;38.69;102089.95;1512299;94;21052;-78
2022/04/29 10:25:52;;;;;;;1.20;0.82;;;;;;;16.01;38.57;102091.56;1492818;94;21113;-78
2022/04/29 10:28:22;;;;;;;3.63;0.93;;;;;;;16.07;38.52;102086.26;1511850;94;21113;-78
2022/04/29 10:31:02;;;;;;;2.47;1.50;;;;;;;16.17;38.53;102090.42;1515592;94;21002;-79
2022/04/29 10:33:28;;;;;;;30.77;2.60;;;;;;;16.24;38.48;102084.22;1511945;93;21198;-78
2022/04/29 10:35:58;;;;;;;2.87;0.93;;;;;;;16.27;38.37;102080.70;1515477;94;21126;-79
2022/04/29 10:38:39;;;;;;;3.70;0.80;;;;;;;16.26;38.44;102073.31;1498473;94;21037;-79
2022/04/29 10:41:14;;;;;;;1.40;0.60;;;;;;;16.29;37.86;102071.09;1511948;93;20990;-79
2022/04/29 10:43:52;;;;;;;1.55;0.70;;;;;;;16.23;38.15;102078.14;1514940;94;21017;-79
2022/04/29 10:46:31;;;;;;;2.12;0.82;;;;;;;16.26;38.21;102068.09;1511758;94;20991;-79
2022/04/29 10:48:58;;;;;;;2.50;1.10;;;;;;;16.33;38.12;102067.11;1509766;94;21002;-78
2022/04/29 10:51:33;;;;;;;3.12;0.72;;;;;;;16.40;38.19;102065.25;1496339;94;21023;-78
2022/04/29 10:54:01;;;;;;;3.67;0.68;;;;;;;16.48;38.14;102059.45;1439233;96;21122;-79
2022/04/29 10:56:32;;;;;;;1.75;0.45;;;;;;;16.48;38.01;102062.07;1478655;95;21476;-79
2022/04/29 10:59:11;;;;;;;2.50;0.62;;;;;;;16.54;37.94;102060.66;1479788;95;21109;-79
2022/04/29 11:01:40;;;;;;;1.75;0.57;;;;;;;16.50;37.91;102056.38;1478617;95;21057;-78
2022/04/29 11:04:21;;;;;;;1.92;0.70;;;;;;;16.55;37.78;102059.33;1475583;95;21933;-78
2022/04/29 11:06:48;;;;;;;2.20;0.50;;;;;;;16.64;37.83;102063.52;1475327;95;21506;-78
2022/04/29 11:09:35;;;;;;;1.37;0.50;;;;;;;16.70;37.81;102048.19;1478732;95;21018;-78
2022/04/29 11:12:01;;;;;;;1.57;0.98;;;;;;;16.74;37.70;102050.72;1479286;95;21053;-78
2022/04/29 11:14:28;;;;;;;1.47;0.72;;;;;;;16.74;37.65;102047.24;1471629;95;21053;-78
2022/04/29 11:16:57;;;;;;;1.07;0.43;;;;;;;16.69;37.60;102055.16;1478209;95;21041;-79
2022/04/29 11:19:28;;;;;;;0.78;0.62;;;;;;;16.63;36.92;102050.50;1464940;95;21069;-78
2022/04/29 11:24:47;;;;;;;1.25;0.50;;;;;;;16.53;36.85;102041.96;1479255;95;21060;-78
2022/04/29 11:27:13;;;;;;;1.25;0.40;;;;;;;16.54;36.86;102043.24;1469570;95;21049;-78
2022/04/29 11:29:47;;;;;;;0.30;0.30;;;;;;;16.60;36.90;102049.25;1477518;95;21108;-78
2022/04/29 11:32:13;;;;;;;0.60;0.40;;;;;;;16.54;36.76;102041.94;1553683;89;21550;-79
2022/04/29 11:34:54;;;;;;;0.65;0.37;;;;;;;16.54;36.94;102039.77;1586179;90;20975;-79
2022/04/29 11:37:28;;;;;;;2.20;0.50;;;;;;;16.57;36.74;102028.41;1584420;90;21531;-79
2022/04/29 11:39:59;;;;;;;1.67;0.53;;;;;;;16.57;36.73;102037.10;1580871;90;21615;-79
2022/04/29 11:42:26;;;;;;;1.55;0.50;;;;;;;16.62;36.80;102032.66;1585195;88;20997;-79
2022/04/29 11:44:52;;;;;;;28.67;1.42;;;;;;;16.67;36.74;102021.69;1587739;88;21149;-80
2022/04/29 11:47:26;;;;;;;0.57;0.50;;;;;;;16.73;36.84;102025.93;1562933;90;21134;-79
2022/04/29 11:49:58;;;;;;;3.20;0.85;;;;;;;16.84;36.84;102017.00;1542750;91;21431;-79
2022/04/29 11:52:29;;;;;;;1.47;0.95;;;;;;;16.88;36.45;102017.36;1557174;91;21100;-79
2022/04/29 11:55:06;;;;;;;1.20;0.50;;;;;;;16.81;36.48;102017.06;1579923;88;37635;-80
2022/04/29 11:57:34;;;;;;;;;;;;;;;16.73;36.46;102018.09;1552391;89;21129;-80